sensor_id;sensor_type;location;lat;lon;timestamp;pressure;altitude;pressure_sealevel;temperature;humidity
43257;BME280;28860;43.212;27.934;2023-08-21T00:01:44;100910.31;;;32.56;24.52
43257;BME280;28860;43.212;27.934;2023-08-21T00:04:10;100917.19;;;32.54;24.63
43257;BME280;28860;43.212;27.934;2023-08-21T00:06:35;100919.72;;;32.55;24.77
43257;BME280;28860;43.212;27.934;2023-08-21T00:09:01;100916.34;;;32.53;24.79
43257;BME280;28860;43.212;27.934;2023-08-21T00:11:27;100910.06;;;32.46;24.86
43257;BME280;28860;43.212;27.934;2023-08-21T00:13:53;100918.38;;;32.46;24.75
43257;BME280;28860;43.212;27.934;2023-08-21T00:16:18;100918.97;;;32.48;25.36
43257;BME280;28860;43.212;27.934;2023-08-21T00:18:44;100917.38;;;32.40;25.50
43257;BME280;28860;43.212;27.934;2023-08-21T00:21:10;100922.53;;;32.37;25.94
43257;BME280;28860;43.212;27.934;2023-08-21T00:23:35;100917.00;;;32.18;26.77
43257;BME280;28860;43.212;27.934;2023-08-21T00:26:01;100906.50;;;32.20;26.85
43257;BME280;28860;43.212;27.934;2023-08-21T00:28:28;100900.66;;;32.10;26.98
43257;BME280;28860;43.212;27.934;2023-08-21T00:31:01;100909.59;;;32.12;26.92
43257;BME280;28860;43.212;27.934;2023-08-21T00:33:27;100923.94;;;31.90;27.19
43257;BME280;28860;43.212;27.934;2023-08-21T00:35:55;100912.94;;;31.76;26.86
43257;BME280;28860;43.212;27.934;2023-08-21T00:38:24;100924.31;;;31.49;27.04
43257;BME280;28860;43.212;27.934;2023-08-21T00:40:50;100920.97;;;31.41;26.72
43257;BME280;28860;43.212;27.934;2023-08-21T00:43:16;100922.31;;;31.31;27.08
43257;BME280;28860;43.212;27.934;2023-08-21T00:45:43;100925.88;;;31.13;27.26
43257;BME280;28860;43.212;27.934;2023-08-21T00:48:10;100913.00;;;31.26;26.84
43257;BME280;28860;43.212;27.934;2023-08-21T00:50:39;100914.38;;;31.10;27.15
43257;BME280;28860;43.212;27.934;2023-08-21T00:53:05;100901.22;;;31.05;26.86
43257;BME280;28860;43.212;27.934;2023-08-21T00:55:32;100914.34;;;31.16;26.86
43257;BME280;28860;43.212;27.934;2023-08-21T00:57:58;100922.28;;;31.06;26.63
43257;BME280;28860;43.212;27.934;2023-08-21T01:00:25;100919.13;;;31.02;26.55
43257;BME280;28860;43.212;27.934;2023-08-21T01:02:50;100916.63;;;30.94;26.88
43257;BME280;28860;43.212;27.934;2023-08-21T01:05:18;100909.16;;;30.95;26.80
43257;BME280;28860;43.212;27.934;2023-08-21T01:08:01;100926.84;;;30.93;26.97
43257;BME280;28860;43.212;27.934;2023-08-21T01:11:17;100914.03;;;30.99;27.24
43257;BME280;28860;43.212;27.934;2023-08-21T01:15:58;100918.34;;;31.20;26.63
43257;BME280;28860;43.212;27.934;2023-08-21T01:18:28;100914.53;;;31.22;26.72
43257;BME280;28860;43.212;27.934;2023-08-21T01:20:55;100910.56;;;31.36;26.56
43257;BME280;28860;43.212;27.934;2023-08-21T01:23:50;100914.13;;;31.43;26.74
43257;BME280;28860;43.212;27.934;2023-08-21T01:26:18;100911.81;;;31.40;26.94
43257;BME280;28860;43.212;27.934;2023-08-21T01:28:44;100905.97;;;31.48;26.55
43257;BME280;28860;43.212;27.934;2023-08-21T01:31:23;100904.75;;;31.44;26.88
43257;BME280;28860;43.212;27.934;2023-08-21T01:33:55;100907.69;;;31.49;26.41
43257;BME280;28860;43.212;27.934;2023-08-21T01:36:22;100914.38;;;31.60;26.56
43257;BME280;28860;43.212;27.934;2023-08-21T01:38:48;100903.28;;;31.60;26.53
43257;BME280;28860;43.212;27.934;2023-08-21T01:41:14;100906.47;;;31.64;26.60
43257;BME280;28860;43.212;27.934;2023-08-21T01:43:42;100917.69;;;31.69;26.99
43257;BME280;28860;43.212;27.934;2023-08-21T01:46:10;100912.16;;;31.69;26.94
43257;BME280;28860;43.212;27.934;2023-08-21T01:48:36;100913.88;;;31.70;26.97
43257;BME280;28860;43.212;27.934;2023-08-21T01:51:02;100913.56;;;31.60;26.98
43257;BME280;28860;43.212;27.934;2023-08-21T01:53:28;100925.25;;;31.62;26.76
43257;BME280;28860;43.212;27.934;2023-08-21T01:55:53;100913.28;;;31.43;26.81
43257;BME280;28860;43.212;27.934;2023-08-21T01:58:19;100904.41;;;31.34;26.62
43257;BME280;28860;43.212;27.934;2023-08-21T02:00:48;100910.22;;;31.26;26.79
43257;BME280;28860;43.212;27.934;2023-08-21T02:03:14;100903.94;;;31.37;26.54
43257;BME280;28860;43.212;27.934;2023-08-21T02:05:40;100900.41;;;31.30;26.29
43257;BME280;28860;43.212;27.934;2023-08-21T02:08:08;100892.34;;;31.47;26.42
43257;BME280;28860;43.212;27.934;2023-08-21T02:10:34;100886.44;;;31.43;26.06
43257;BME280;28860;43.212;27.934;2023-08-21T02:13:00;100913.56;;;31.60;26.00
43257;BME280;28860;43.212;27.934;2023-08-21T02:15:25;100896.59;;;31.49;25.91
43257;BME280;28860;43.212;27.934;2023-08-21T02:17:51;100894.38;;;31.58;25.86
43257;BME280;28860;43.212;27.934;2023-08-21T02:20:16;100909.09;;;31.77;25.93
43257;BME280;28860;43.212;27.934;2023-08-21T02:22:45;100905.72;;;31.75;25.57
43257;BME280;28860;43.212;27.934;2023-08-21T02:25:11;100889.97;;;31.69;25.53
43257;BME280;28860;43.212;27.934;2023-08-21T02:27:36;100914.13;;;31.87;25.12
43257;BME280;28860;43.212;27.934;2023-08-21T02:30:05;100914.38;;;32.04;25.06
43257;BME280;28860;43.212;27.934;2023-08-21T02:32:32;100905.59;;;31.89;25.36
43257;BME280;28860;43.212;27.934;2023-08-21T02:34:58;100906.50;;;31.83;25.69
43257;BME280;28860;43.212;27.934;2023-08-21T02:37:23;100912.16;;;31.69;25.56
43257;BME280;28860;43.212;27.934;2023-08-21T02:39:52;100905.78;;;31.69;25.78
43257;BME280;28860;43.212;27.934;2023-08-21T02:42:19;100902.69;;;31.77;25.54
43257;BME280;28860;43.212;27.934;2023-08-21T02:44:45;100900.34;;;31.99;25.48
43257;BME280;28860;43.212;27.934;2023-08-21T02:47:13;100902.97;;;31.94;25.44
43257;BME280;28860;43.212;27.934;2023-08-21T02:49:38;100914.47;;;31.98;25.88
43257;BME280;28860;43.212;27.934;2023-08-21T02:52:04;100905.72;;;32.13;25.76
43257;BME280;28860;43.212;27.934;2023-08-21T02:54:29;100897.88;;;32.10;25.81
43257;BME280;28860;43.212;27.934;2023-08-21T02:56:55;100916.47;;;32.09;26.03
43257;BME280;28860;43.212;27.934;2023-08-21T02:59:23;100911.09;;;32.26;25.62
43257;BME280;28860;43.212;27.934;2023-08-21T03:01:48;100911.00;;;32.02;26.06
43257;BME280;28860;43.212;27.934;2023-08-21T03:04:14;100925.78;;;32.15;26.13
43257;BME280;28860;43.212;27.934;2023-08-21T03:06:39;100917.28;;;32.10;26.30
43257;BME280;28860;43.212;27.934;2023-08-21T03:09:05;100922.69;;;32.23;26.23
43257;BME280;28860;43.212;27.934;2023-08-21T03:11:30;100924.16;;;32.07;26.59
43257;BME280;28860;43.212;27.934;2023-08-21T03:13:56;100932.84;;;32.11;26.66
43257;BME280;28860;43.212;27.934;2023-08-21T03:16:21;100937.66;;;32.03;27.05
43257;BME280;28860;43.212;27.934;2023-08-21T03:18:58;100931.56;;;31.95;27.33
43257;BME280;28860;43.212;27.934;2023-08-21T03:21:24;100946.25;;;31.95;27.84
43257;BME280;28860;43.212;27.934;2023-08-21T03:23:51;100932.53;;;31.82;28.10
43257;BME280;28860;43.212;27.934;2023-08-21T03:26:17;100933.88;;;31.79;28.61
43257;BME280;28860;43.212;27.934;2023-08-21T03:28:42;100936.97;;;31.64;28.61
43257;BME280;28860;43.212;27.934;2023-08-21T03:31:08;100947.56;;;31.67;29.08
43257;BME280;28860;43.212;27.934;2023-08-21T03:33:36;100937.47;;;31.54;29.36
43257;BME280;28860;43.212;27.934;2023-08-21T03:36:02;100952.81;;;31.57;29.59
43257;BME280;28860;43.212;27.934;2023-08-21T03:38:27;100948.09;;;31.57;29.68
43257;BME280;28860;43.212;27.934;2023-08-21T03:40:53;100937.53;;;31.47;29.62
43257;BME280;28860;43.212;27.934;2023-08-21T03:43:18;100954.63;;;31.44;29.58
43257;BME280;28860;43.212;27.934;2023-08-21T03:45:44;100954.63;;;31.44;29.53
43257;BME280;28860;43.212;27.934;2023-08-21T03:48:10;100950.94;;;31.25;30.26
43257;BME280;28860;43.212;27.934;2023-08-21T03:50:35;100956.88;;;31.29;30.21
43257;BME280;28860;43.212;27.934;2023-08-21T03:53:01;100949.66;;;31.28;30.57
43257;BME280;28860;43.212;27.934;2023-08-21T03:55:27;100952.59;;;31.33;30.16
43257;BME280;28860;43.212;27.934;2023-08-21T03:57:52;100957.66;;;31.36;30.27
43257;BME280;28860;43.212;27.934;2023-08-21T04:00:23;100955.25;;;31.21;30.88
43257;BME280;28860;43.212;27.934;2023-08-21T04:02:48;100944.34;;;31.19;30.49
43257;BME280;28860;43.212;27.934;2023-08-21T04:05:14;100960.31;;;31.24;30.72
43257;BME280;28860;43.212;27.934;2023-08-21T04:07:40;100952.50;;;31.14;31.34
43257;BME280;28860;43.212;27.934;2023-08-21T04:10:09;100948.03;;;31.13;31.05
43257;BME280;28860;43.212;27.934;2023-08-21T04:12:34;100959.47;;;31.24;30.77
43257;BME280;28860;43.212;27.934;2023-08-21T04:15:00;100952.59;;;31.33;30.84
43257;BME280;28860;43.212;27.934;2023-08-21T04:17:25;100971.81;;;31.28;31.07
43257;BME280;28860;43.212;27.934;2023-08-21T04:19:51;100971.72;;;31.41;31.00
43257;BME280;28860;43.212;27.934;2023-08-21T04:22:17;100964.00;;;31.43;31.01
43257;BME280;28860;43.212;27.934;2023-08-21T04:24:45;100963.09;;;31.49;31.25
43257;BME280;28860;43.212;27.934;2023-08-21T04:27:11;100962.41;;;31.54;31.38
43257;BME280;28860;43.212;27.934;2023-08-21T04:29:37;100956.25;;;31.52;31.29
43257;BME280;28860;43.212;27.934;2023-08-21T04:32:03;100965.66;;;31.51;31.36
43257;BME280;28860;43.212;27.934;2023-08-21T04:34:32;100956.13;;;31.40;31.27
43257;BME280;28860;43.212;27.934;2023-08-21T04:36:57;100967.75;;;31.56;31.06
43257;BME280;28860;43.212;27.934;2023-08-21T04:39:26;100962.19;;;31.56;31.33
43257;BME280;28860;43.212;27.934;2023-08-21T04:41:59;100958.84;;;31.47;31.36
43257;BME280;28860;43.212;27.934;2023-08-21T04:44:25;100954.16;;;31.47;31.26
43257;BME280;28860;43.212;27.934;2023-08-21T04:46:50;100966.44;;;31.58;31.23
43257;BME280;28860;43.212;27.934;2023-08-21T04:49:16;100961.41;;;31.48;31.52
43257;BME280;28860;43.212;27.934;2023-08-21T04:51:44;100955.09;;;31.41;31.67
43257;BME280;28860;43.212;27.934;2023-08-21T04:54:10;100963.00;;;31.38;31.63
43257;BME280;28860;43.212;27.934;2023-08-21T04:56:35;100962.63;;;31.53;31.56
43257;BME280;28860;43.212;27.934;2023-08-21T04:59:01;100968.19;;;31.53;31.90
43257;BME280;28860;43.212;27.934;2023-08-21T05:01:28;100941.84;;;31.43;31.30
43257;BME280;28860;43.212;27.934;2023-08-21T05:03:55;100958.22;;;31.70;31.21
43257;BME280;28860;43.212;27.934;2023-08-21T05:06:21;100947.28;;;31.57;31.48
43257;BME280;28860;43.212;27.934;2023-08-21T05:08:56;100951.06;;;31.37;32.08
43257;BME280;28860;43.212;27.934;2023-08-21T05:11:24;100961.75;;;31.59;31.74
43257;BME280;28860;43.212;27.934;2023-08-21T05:13:50;100971.44;;;31.68;31.58
43257;BME280;28860;43.212;27.934;2023-08-21T05:16:24;100965.47;;;31.71;31.90
43257;BME280;28860;43.212;27.934;2023-08-21T05:18:53;100980.41;;;31.70;32.18
43257;BME280;28860;43.212;27.934;2023-08-21T05:21:21;100967.22;;;31.66;31.88
43257;BME280;28860;43.212;27.934;2023-08-21T05:23:49;100978.16;;;31.86;31.63
43257;BME280;28860;43.212;27.934;2023-08-21T05:26:18;100984.94;;;31.90;31.78
43257;BME280;28860;43.212;27.934;2023-08-21T05:28:46;100986.28;;;31.81;31.93
43257;BME280;28860;43.212;27.934;2023-08-21T05:31:14;100990.22;;;31.91;31.77
43257;BME280;28860;43.212;27.934;2023-08-21T05:33:40;100992.72;;;31.74;32.12
43257;BME280;28860;43.212;27.934;2023-08-21T05:36:08;100996.75;;;31.53;32.37
43257;BME280;28860;43.212;27.934;2023-08-21T05:38:33;100992.78;;;31.42;32.47
43257;BME280;28860;43.212;27.934;2023-08-21T05:41:01;100977.44;;;31.65;32.04
43257;BME280;28860;43.212;27.934;2023-08-21T05:43:27;100985.50;;;31.73;32.22
43257;BME280;28860;43.212;27.934;2023-08-21T05:45:52;100982.59;;;31.61;32.12
43257;BME280;28860;43.212;27.934;2023-08-21T05:48:18;100982.09;;;31.71;31.99
43257;BME280;28860;43.212;27.934;2023-08-21T05:50:43;100972.84;;;31.59;32.52
43257;BME280;28860;43.212;27.934;2023-08-21T05:53:12;100996.13;;;31.76;32.26
43257;BME280;28860;43.212;27.934;2023-08-21T05:55:38;100990.22;;;31.66;32.46
43257;BME280;28860;43.212;27.934;2023-08-21T05:58:04;100982.94;;;31.72;32.59
43257;BME280;28860;43.212;27.934;2023-08-21T06:00:33;100981.75;;;31.61;32.50
43257;BME280;28860;43.212;27.934;2023-08-21T06:02:59;100995.41;;;31.88;32.52
43257;BME280;28860;43.212;27.934;2023-08-21T06:05:24;100987.38;;;31.98;32.48
43257;BME280;28860;43.212;27.934;2023-08-21T06:07:53;101005.66;;;32.06;32.40
43257;BME280;28860;43.212;27.934;2023-08-21T06:10:18;101016.91;;;32.11;32.24
43257;BME280;28860;43.212;27.934;2023-08-21T06:12:44;100987.25;;;32.12;31.96
43257;BME280;28860;43.212;27.934;2023-08-21T06:15:10;100984.03;;;32.15;31.84
43257;BME280;28860;43.212;27.934;2023-08-21T06:17:37;101003.59;;;32.20;31.98
43257;BME280;28860;43.212;27.934;2023-08-21T06:20:18;100984.41;;;32.18;31.88
43257;BME280;28860;43.212;27.934;2023-08-21T06:22:51;100997.44;;;32.18;31.83
43257;BME280;28860;43.212;27.934;2023-08-21T06:25:20;100992.13;;;32.35;31.51
43257;BME280;28860;43.212;27.934;2023-08-21T06:27:46;101005.63;;;32.50;31.68
43257;BME280;28860;43.212;27.934;2023-08-21T06:30:12;101014.94;;;32.56;31.50
43257;BME280;28860;43.212;27.934;2023-08-21T06:32:41;101021.63;;;32.67;31.19
43257;BME280;28860;43.212;27.934;2023-08-21T06:35:07;101021.03;;;32.65;31.20
43257;BME280;28860;43.212;27.934;2023-08-21T06:37:32;101022.41;;;32.74;30.44
43257;BME280;28860;43.212;27.934;2023-08-21T06:39:58;101018.06;;;32.78;30.42
43257;BME280;28860;43.212;27.934;2023-08-21T06:42:23;101016.84;;;32.93;30.27
43257;BME280;28860;43.212;27.934;2023-08-21T06:44:49;101003.94;;;32.80;30.53
43257;BME280;28860;43.212;27.934;2023-08-21T06:47:16;101010.50;;;33.04;30.30
43257;BME280;28860;43.212;27.934;2023-08-21T06:49:41;101010.63;;;33.09;30.19
43257;BME280;28860;43.212;27.934;2023-08-21T06:52:07;101010.53;;;33.28;30.32
43257;BME280;28860;43.212;27.934;2023-08-21T06:54:33;101001.13;;;33.29;30.10
43257;BME280;28860;43.212;27.934;2023-08-21T06:56:59;101004.78;;;33.41;30.04
43257;BME280;28860;43.212;27.934;2023-08-21T06:59:27;101017.09;;;33.34;29.67
43257;BME280;28860;43.212;27.934;2023-08-21T07:01:55;101019.28;;;33.43;29.60
43257;BME280;28860;43.212;27.934;2023-08-21T07:04:20;101017.28;;;33.51;29.17
43257;BME280;28860;43.212;27.934;2023-08-21T07:06:46;101017.28;;;33.51;29.42
43257;BME280;28860;43.212;27.934;2023-08-21T07:09:14;101011.72;;;33.63;29.21
43257;BME280;28860;43.212;27.934;2023-08-21T07:11:39;101016.47;;;33.62;29.18
43257;BME280;28860;43.212;27.934;2023-08-21T07:14:08;101008.34;;;33.72;29.15
43257;BME280;28860;43.212;27.934;2023-08-21T07:16:34;101015.75;;;34.03;29.00
43257;BME280;28860;43.212;27.934;2023-08-21T07:18:59;101007.66;;;34.01;28.90
43257;BME280;28860;43.212;27.934;2023-08-21T07:21:25;101013.31;;;34.18;28.38
43257;BME280;28860;43.212;27.934;2023-08-21T07:23:50;101006.78;;;34.24;28.50
43257;BME280;28860;43.212;27.934;2023-08-21T07:26:16;101012.91;;;34.38;28.15
43257;BME280;28860;43.212;27.934;2023-08-21T07:28:41;101010.84;;;34.57;28.72
43257;BME280;28860;43.212;27.934;2023-08-21T07:31:09;101020.00;;;34.70;28.70
43257;BME280;28860;43.212;27.934;2023-08-21T07:33:35;101013.44;;;34.76;29.30
43257;BME280;28860;43.212;27.934;2023-08-21T07:36:05;101003.38;;;34.75;29.64
43257;BME280;28860;43.212;27.934;2023-08-21T07:38:31;101016.66;;;34.85;29.66
43257;BME280;28860;43.212;27.934;2023-08-21T07:41:05;101006.22;;;34.92;28.99
43257;BME280;28860;43.212;27.934;2023-08-21T07:43:33;100998.31;;;35.01;29.09
43257;BME280;28860;43.212;27.934;2023-08-21T07:46:07;100999.53;;;35.05;28.02
43257;BME280;28860;43.212;27.934;2023-08-21T07:48:32;100987.53;;;35.05;27.93
43257;BME280;28860;43.212;27.934;2023-08-21T07:50:58;101006.97;;;35.17;28.55
43257;BME280;28860;43.212;27.934;2023-08-21T07:53:28;101015.25;;;35.11;28.36
43257;BME280;28860;43.212;27.934;2023-08-21T07:55:53;101007.06;;;35.22;27.93
43257;BME280;28860;43.212;27.934;2023-08-21T07:58:19;101008.66;;;35.18;27.56
43257;BME280;28860;43.212;27.934;2023-08-21T08:00:45;101002.56;;;35.21;27.88
43257;BME280;28860;43.212;27.934;2023-08-21T08:03:11;101007.84;;;35.34;27.39
43257;BME280;28860;43.212;27.934;2023-08-21T08:05:42;100998.91;;;35.49;27.45
43257;BME280;28860;43.212;27.934;2023-08-21T08:08:09;101005.69;;;35.53;27.85
43257;BME280;28860;43.212;27.934;2023-08-21T08:10:38;100984.53;;;35.58;27.33
43257;BME280;28860;43.212;27.934;2023-08-21T08:13:07;100999.41;;;35.63;27.22
43257;BME280;28860;43.212;27.934;2023-08-21T08:15:33;100985.56;;;35.68;27.23
43257;BME280;28860;43.212;27.934;2023-08-21T08:18:03;101001.28;;;35.75;27.18
43257;BME280;28860;43.212;27.934;2023-08-21T08:20:29;100993.50;;;35.77;27.46
43257;BME280;28860;43.212;27.934;2023-08-21T08:22:55;100992.78;;;35.87;26.60
43257;BME280;28860;43.212;27.934;2023-08-21T08:25:22;100996.84;;;35.96;26.98
43257;BME280;28860;43.212;27.934;2023-08-21T08:27:51;100999.88;;;35.94;26.34
43257;BME280;28860;43.212;27.934;2023-08-21T08:30:20;100990.22;;;36.02;26.47
43257;BME280;28860;43.212;27.934;2023-08-21T08:32:48;100996.31;;;36.16;26.55
43257;BME280;28860;43.212;27.934;2023-08-21T08:35:14;100991.75;;;36.10;25.67
43257;BME280;28860;43.212;27.934;2023-08-21T08:37:43;100987.47;;;36.24;25.72
43257;BME280;28860;43.212;27.934;2023-08-21T08:40:10;100989.81;;;36.33;25.60
43257;BME280;28860;43.212;27.934;2023-08-21T08:42:36;100993.19;;;36.35;25.67
43257;BME280;28860;43.212;27.934;2023-08-21T08:45:03;100988.78;;;36.39;25.87
43257;BME280;28860;43.212;27.934;2023-08-21T08:47:31;100995.69;;;36.53;25.41
43257;BME280;28860;43.212;27.934;2023-08-21T08:49:59;100986.69;;;36.51;25.48
43257;BME280;28860;43.212;27.934;2023-08-21T08:52:26;100991.28;;;36.58;25.02
43257;BME280;28860;43.212;27.934;2023-08-21T08:54:54;100987.19;;;36.65;24.87
43257;BME280;28860;43.212;27.934;2023-08-21T08:57:23;100975.19;;;36.70;25.21
43257;BME280;28860;43.212;27.934;2023-08-21T08:59:48;100971.38;;;36.76;24.57
43257;BME280;28860;43.212;27.934;2023-08-21T09:02:15;100975.88;;;36.82;24.62
43257;BME280;28860;43.212;27.934;2023-08-21T09:04:41;100970.84;;;36.79;24.41
43257;BME280;28860;43.212;27.934;2023-08-21T09:07:11;100983.16;;;36.83;24.55
43257;BME280;28860;43.212;27.934;2023-08-21T09:09:41;100955.19;;;36.78;24.48
43257;BME280;28860;43.212;27.934;2023-08-21T09:12:11;100959.44;;;36.86;25.13
43257;BME280;28860;43.212;27.934;2023-08-21T09:14:41;100942.38;;;36.82;24.57
43257;BME280;28860;43.212;27.934;2023-08-21T09:17:07;100953.53;;;36.82;24.79
43257;BME280;28860;43.212;27.934;2023-08-21T09:19:33;100959.78;;;36.90;25.49
43257;BME280;28860;43.212;27.934;2023-08-21T09:22:03;100945.72;;;36.85;25.94
43257;BME280;28860;43.212;27.934;2023-08-21T09:24:35;100953.66;;;36.93;26.59
43257;BME280;28860;43.212;27.934;2023-08-21T09:27:03;100946.38;;;36.92;27.24
43257;BME280;28860;43.212;27.934;2023-08-21T09:29:39;100951.44;;;36.95;27.11
43257;BME280;28860;43.212;27.934;2023-08-21T09:32:07;100960.38;;;36.97;25.84
43257;BME280;28860;43.212;27.934;2023-08-21T09:34:37;100943.63;;;36.97;25.16
43257;BME280;28860;43.212;27.934;2023-08-21T09:37:07;100951.47;;;37.00;24.68
43257;BME280;28860;43.212;27.934;2023-08-21T09:39:36;100950.72;;;37.05;24.15
43257;BME280;28860;43.212;27.934;2023-08-21T09:42:06;100947.66;;;37.06;23.83
43257;BME280;28860;43.212;27.934;2023-08-21T09:44:40;100939.28;;;37.06;24.01
43257;BME280;28860;43.212;27.934;2023-08-21T09:47:12;100945.44;;;37.08;23.67
43257;BME280;28860;43.212;27.934;2023-08-21T09:49:39;100948.25;;;37.14;24.22
43257;BME280;28860;43.212;27.934;2023-08-21T09:52:08;100949.44;;;37.18;24.10
43257;BME280;28860;43.212;27.934;2023-08-21T09:54:38;100953.94;;;37.24;24.77
43257;BME280;28860;43.212;27.934;2023-08-21T09:57:04;100951.72;;;37.26;24.21
43257;BME280;28860;43.212;27.934;2023-08-21T09:59:32;100950.03;;;37.25;23.56
43257;BME280;28860;43.212;27.934;2023-08-21T10:02:04;100951.81;;;37.36;24.06
43257;BME280;28860;43.212;27.934;2023-08-21T10:04:32;100944.88;;;37.44;23.74
43257;BME280;28860;43.212;27.934;2023-08-21T10:07:00;100936.81;;;37.48;23.57
43257;BME280;28860;43.212;27.934;2023-08-21T10:09:29;100951.69;;;37.54;23.53
43257;BME280;28860;43.212;27.934;2023-08-21T10:11:55;100938.50;;;37.49;24.29
43257;BME280;28860;43.212;27.934;2023-08-21T10:14:24;100937.97;;;37.52;24.72
43257;BME280;28860;43.212;27.934;2023-08-21T10:16:53;100941.41;;;37.64;24.08
43257;BME280;28860;43.212;27.934;2023-08-21T10:19:19;100942.78;;;37.62;23.65
43257;BME280;28860;43.212;27.934;2023-08-21T10:21:48;100931.91;;;37.65;23.85
43257;BME280;28860;43.212;27.934;2023-08-21T10:24:26;100935.28;;;37.67;23.64
43257;BME280;28860;43.212;27.934;2023-08-21T10:26:51;100935.28;;;37.73;23.42
43257;BME280;28860;43.212;27.934;2023-08-21T10:29:17;100943.44;;;37.79;23.38
43257;BME280;28860;43.212;27.934;2023-08-21T10:31:42;100928.66;;;37.84;23.25
43257;BME280;28860;43.212;27.934;2023-08-21T10:34:12;100938.78;;;37.90;23.36
43257;BME280;28860;43.212;27.934;2023-08-21T10:39:18;100927.38;;;38.02;22.47
43257;BME280;28860;43.212;27.934;2023-08-21T10:44:36;100932.19;;;38.17;22.74
43257;BME280;28860;43.212;27.934;2023-08-21T10:49:40;100923.31;;;38.36;22.12
43257;BME280;28860;43.212;27.934;2023-08-21T10:52:08;100935.13;;;38.54;21.96
43257;BME280;28860;43.212;27.934;2023-08-21T10:54:50;100932.06;;;38.60;21.58
43257;BME280;28860;43.212;27.934;2023-08-21T10:57:16;100924.50;;;38.61;22.29
43257;BME280;28860;43.212;27.934;2023-08-21T10:59:56;100931.81;;;38.67;23.77
43257;BME280;28860;43.212;27.934;2023-08-21T11:02:22;100941.63;;;38.75;27.26
43257;BME280;28860;43.212;27.934;2023-08-21T11:04:49;100937.97;;;38.69;29.71
43257;BME280;28860;43.212;27.934;2023-08-21T11:07:15;100940.19;;;38.57;31.40
43257;BME280;28860;43.212;27.934;2023-08-21T11:09:43;100937.41;;;38.67;33.01
43257;BME280;28860;43.212;27.934;2023-08-21T11:12:13;100939.66;;;38.70;33.34
43257;BME280;28860;43.212;27.934;2023-08-21T11:14:43;100935.13;;;38.59;33.24
43257;BME280;28860;43.212;27.934;2023-08-21T11:17:09;100942.41;;;38.55;33.80
43257;BME280;28860;43.212;27.934;2023-08-21T11:19:36;100936.19;;;38.42;34.21
43257;BME280;28860;43.212;27.934;2023-08-21T11:22:02;100943.22;;;38.45;34.14
43257;BME280;28860;43.212;27.934;2023-08-21T11:24:42;100928.34;;;38.44;35.23
43257;BME280;28860;43.212;27.934;2023-08-21T11:27:12;100945.78;;;38.52;36.00
43257;BME280;28860;43.212;27.934;2023-08-21T11:29:40;100942.97;;;38.52;37.03
43257;BME280;28860;43.212;27.934;2023-08-21T11:32:20;100948.28;;;38.48;38.36
43257;BME280;28860;43.212;27.934;2023-08-21T11:34:53;100956.91;;;38.36;38.61
43257;BME280;28860;43.212;27.934;2023-08-21T11:37:21;100949.56;;;38.25;38.65
43257;BME280;28860;43.212;27.934;2023-08-21T11:39:54;100952.88;;;38.11;38.36
43257;BME280;28860;43.212;27.934;2023-08-21T11:42:31;100952.63;;;38.23;37.68
43257;BME280;28860;43.212;27.934;2023-08-21T11:44:58;100942.34;;;38.34;37.16
43257;BME280;28860;43.212;27.934;2023-08-21T11:47:29;100948.41;;;38.10;37.88
43257;BME280;28860;43.212;27.934;2023-08-21T11:49:54;100951.19;;;38.05;38.43
43257;BME280;28860;43.212;27.934;2023-08-21T11:52:22;100945.59;;;38.15;37.91
43257;BME280;28860;43.212;27.934;2023-08-21T11:54:51;100946.78;;;38.30;37.50
43257;BME280;28860;43.212;27.934;2023-08-21T11:57:18;100938.13;;;38.31;37.02
43257;BME280;28860;43.212;27.934;2023-08-21T11:59:55;100948.47;;;38.31;36.97
43257;BME280;28860;43.212;27.934;2023-08-21T12:04:54;100952.25;;;37.99;38.49
43257;BME280;28860;43.212;27.934;2023-08-21T12:07:25;100952.13;;;37.78;38.37
43257;BME280;28860;43.212;27.934;2023-08-21T12:09:51;100939.19;;;37.66;38.48
43257;BME280;28860;43.212;27.934;2023-08-21T12:12:17;100952.13;;;37.78;37.86
43257;BME280;28860;43.212;27.934;2023-08-21T12:14:43;100955.31;;;37.97;37.30
43257;BME280;28860;43.212;27.934;2023-08-21T12:17:08;100952.88;;;38.06;37.08
43257;BME280;28860;43.212;27.934;2023-08-21T12:19:37;100951.75;;;38.12;36.86
43257;BME280;28860;43.212;27.934;2023-08-21T12:22:03;100949.84;;;38.18;36.96
43257;BME280;28860;43.212;27.934;2023-08-21T12:24:29;100950.13;;;38.21;36.41
43257;BME280;28860;43.212;27.934;2023-08-21T12:26:55;100955.19;;;38.25;36.35
43257;BME280;28860;43.212;27.934;2023-08-21T12:29:22;100956.03;;;38.30;36.42
43257;BME280;28860;43.212;27.934;2023-08-21T12:31:48;100953.50;;;38.23;36.59
43257;BME280;28860;43.212;27.934;2023-08-21T12:34:14;100955.19;;;38.25;36.90
43257;BME280;28860;43.212;27.934;2023-08-21T12:36:39;100951.81;;;38.22;36.97
43257;BME280;28860;43.212;27.934;2023-08-21T12:39:06;100952.63;;;38.18;37.40
43257;BME280;28860;43.212;27.934;2023-08-21T12:41:35;100951.75;;;38.12;37.18
43257;BME280;28860;43.212;27.934;2023-08-21T12:44:01;100950.06;;;38.06;38.05
43257;BME280;28860;43.212;27.934;2023-08-21T12:46:30;100953.69;;;38.01;38.02
43257;BME280;28860;43.212;27.934;2023-08-21T12:48:56;100944.44;;;38.01;37.66
43257;BME280;28860;43.212;27.934;2023-08-21T12:51:24;100957.31;;;38.02;37.63
43257;BME280;28860;43.212;27.934;2023-08-21T12:53:49;100954.00;;;38.10;37.28
43257;BME280;28860;43.212;27.934;2023-08-21T12:56:16;100952.88;;;38.06;37.21